Tiempo atmosférico en la estación meteorológica de Naut Aran, Arties, Lleida (1185 m.)



Fecha
DESCASC
Temp. máxima en grados centígrados (hora)
DESCASC
Temp. mínima en grados centígrados (hora)
DESCASC
Temp. media en grados centígrados
DESCASC
Racha de viento máxima en m/sg (hora)
DESCASC
Velocidad máxima media en intervalos de 10 minutos(hora)
DESCASC
Precipitaciones diarias en mm
DESCASC
Precipitaciones de 00:00 a 06:00 en mm
DESCASC
Precipitaciones de 06:00 a 12:00 en mm
DESCASC
Precipitaciones de 12:00 a 18:00 en mm
DESCASC
Precipitaciones de 18:00 a 24:00 en mm
DESCASC
16-02-2020 23.3 (13:40) 6.9 (06:20) 15.1 6.67 (13:50) 2.78 (07:00) 0 0 0 0 0
15-02-2020 20.2 (14:30) 1 (03:20) 10.6 5.56 (23:30) 2.22 (23:00) 0 0 0 0 0
14-02-2020 15.9 (14:30) 1.7 (06:40) 8.8 6.39 (15:00) 2.22 (08:20) 0 0 0 0 0
13-02-2020 16.7 (14:10) 2.2 (00:00) 9.5 6.67 (16:10) 2.22 (09:00) 0 0 0 0 0
12-02-2020 11.6 (13:30) 2 (00:00) 6.8 5.56 (14:30) 2.22 (21:20) 0 0 0 0 0
11-02-2020 10.6 (15:50) 1.6 (00:00) 6.1 5.83 (17:10) 2.22 (02:40) 0 0 0 0 0
10-02-2020 18.7 (14:00) 3 (00:00) 10.9 5.56 (14:50) 2.5 (03:20) 0 0 0 0 0
09-02-2020 15.2 (15:00) 0.6 (00:00) 7.9 6.67 (14:00) 3.33 (15:40) 0 0 0 0 0
08-02-2020 12.8 (14:30) -1.7 (-00:0) 5.6 6.67 (14:40) 2.78 (02:30) 0 0 0 0 0
07-02-2020 15.2 (13:10) 0.2 (00:00) 7.7 5.83 (04:20) 2.5 (03:10) 0 0 0 0 0
06-02-2020 15.1 (14:30) -1.5 (-00:0) 6.8 6.94 (10:30) 2.78 (06:30) 0 0 0 0 0
05-02-2020 10 (14:20) -3.6 (-00:0) 3.2 4.17 (21:20) 2.22 (06:30) 0 0 0 0 0
04-02-2020 9.2 (14:20) 1.8 (00:00) 5.5 10 (14:20) 2.78 (14:30) 0.9 0 0.7 0.2 0
03-02-2020 16.6 (14:20) 4.6 (07:10) 10.6 5 (22:00) 2.78 (00:20) 0 0 0 0 0
02-02-2020 18.2 (14:10) 2.7 (00:00) 10.5 5 (07:10) 3.33 (07:10) 0 0 0 0 0
01-02-2020 12.7 (14:30) 3.2 (00:00) 7.9 5.83 (03:30) 2.5 (03:20) 0.3 0 0.3 0 0
31-01-2020 15.2 (13:20) 2.8 (00:00) 9 4.44 (15:30) 2.22 (02:50) 0.4 0.1 0.3 0 0
30-01-2020 15.3 (13:40) 3.3 (00:00) 9.3 4.72 (02:00) 2.22 (01:50) 0 0 0 0 0
29-01-2020 11.2 (15:10) -1.9 (-00:0) 4.6 4.17 (06:30) 2.5 (09:20) 0 0 0 0 0
28-01-2020 10 (14:00) -0.7 (-00:0) 4.7 6.11 (01:30) 2.22 (01:50) 0 0 0 0 0
27-01-2020 9.1 (15:40) -0.3 (00:00) 4.4 6.11 (04:10) 3.06 (16:10) 0 0 0 0 0
26-01-2020 6.1 (15:00) -0.2 (00:00) 2.9 3.33 (23:30) 1.39 (21:30) 5.1 0.8 3.6 0.7 0
25-01-2020 8.9 (15:00) 1.2 (00:00) 5 4.72 (03:40) 1.94 (01:00) 0 0 0 0 0
24-01-2020 7.4 (14:50) -0.9 (-00:0) 3.3 5.28 (00:10) 2.5 (00:30) 0 0 0 0 0
23-01-2020 7.3 (13:10) 0.7 (00:00) 4 12.22 (14:10) 3.33 (14:40) 17.9 6.5 11.2 0.2 0
22-01-2020 3.9 (13:00) -1.7 (-00:0) 1.1 5.83 (13:00) 2.5 (13:00) 29.8 10.5 6.1 9.7 3.5

Gráficas

Temp. máximas Temp. mínimas Temp. medias Precipitaciones Rachas de viento máximas Velocidades máximas media en intervalos de 10 minutos

Datos horarios

Fecha y hora oficial Temperatura (ºC) Velocidad del viento (km/h) Dirección del viento Racha (km/h) Dirección de racha Precipitación (mm) Presión (hPa) Tendencia (hPa) Humedad (%)
2020-02-20 23:00:00 0.9 0 Calma 9 Este 0 -- -- 72
2020-02-20 22:00:00 2 0 Calma 6 Nordeste 0 -- -- 67
2020-02-20 21:00:00 3.5 2 Este 12 Nordeste 0 -- -- 61
2020-02-20 20:00:00 5.2 0 Calma 8 Este 0 -- -- 54
2020-02-20 19:00:00 8.6 0 Calma 18 Oeste 0 -- -- 40
2020-02-20 18:00:00 12.4 6 Sudoeste 17 Sudoeste 0 -- -- 33
2020-02-20 17:00:00 12.8 4 Sudoeste 22 Sudoeste 0 -- -- 30
2020-02-20 16:00:00 15.1 7 Sudoeste 23 Sudoeste 0 -- -- 27
2020-02-20 15:00:00 16.9 5 Oeste 12 Sudoeste 0 -- -- 27
2020-02-20 14:00:00 16.9 4 Oeste 23 Sudoeste 0 -- -- 27
2020-02-20 13:00:00 15.8 6 Sudoeste 19 Sudoeste 0 -- -- 28
2020-02-20 12:00:00 12.5 0 Calma 7 Sudoeste 0 -- -- 36
2020-02-20 11:00:00 6.9 2 Este 4 Este 0 -- -- 53
2020-02-20 10:00:00 0.8 0 Calma 4 Nordeste 0 -- -- 70
2020-02-20 09:00:00 0.3 0 Calma 6 Nordeste 0 -- -- 66
2020-02-20 08:00:00 -0.6 0 Calma 6 Sudeste 0 -- -- 66
2020-02-20 07:00:00 -0.3 2 Este 11 Nordeste 0 -- -- 65
2020-02-20 06:00:00 0.8 5 Este 13 Este 0 -- -- 60
2020-02-20 05:00:00 -0.8 0 Calma 9 Este 0 -- -- 66
2020-02-20 04:00:00 -0.2 4 Nordeste 12 Este 0 -- -- 66
2020-02-20 03:00:00 0.3 4 Este 8 Nordeste 0 -- -- 67
2020-02-20 02:00:00 -0.3 0 Calma 9 Nordeste 0 -- -- 69
2020-02-20 01:00:00 -0.1 0 Calma 10 Nordeste 0 -- -- 71
2020-02-20 00:00:00 -0.1 2 Este 9 Este 0 -- -- 73
2020-02-19 23:00:00 0.8 4 Este 16 Este 0 -- -- 74
2020-02-19 22:00:00 2 6 Este 14 Nordeste 0 -- -- 72
2020-02-19 21:00:00 1.6 4 Este 12 Este 0 -- -- 77
2020-02-19 20:00:00 3.1 2 Este 10 Este 0 -- -- 70
2020-02-19 19:00:00 5.5 2 Nordeste 13 Oeste 0 -- -- 62
2020-02-19 18:00:00 7.7 5 Sudoeste 24 Sudoeste 0 -- -- 49
2020-02-19 17:00:00 8.9 5 Sudoeste 19 Oeste 0 -- -- 39
2020-02-19 16:00:00 10.8 4 Sudoeste 15 Sudoeste 0 -- -- 33
2020-02-19 15:00:00 12.9 5 Sudoeste 13 Sudoeste 0 -- -- 31
2020-02-19 14:00:00 13.1 2 Sudoeste 6 Oeste 0 -- -- 31
2020-02-19 13:00:00 9 2 Este 7 Sur 0 -- -- 45
2020-02-19 12:00:00 5.6 3 Sudeste 7 Sur 0 -- -- 59
2020-02-19 11:00:00 1.9 2 Sudeste 4 Este 0 -- -- 78
2020-02-19 10:00:00 -2 0 Calma 9 Este 0 -- -- 87
2020-02-19 09:00:00 -2.1 6 Este 10 Nordeste 0 -- -- 83
2020-02-19 08:00:00 -3 0 Calma 9 Nordeste 0 -- -- 89
2020-02-19 07:00:00 -3 2 Nordeste 5 Nordeste 0 -- -- 89
2020-02-19 06:00:00 -2.1 0 Calma 11 Este 0 -- -- 87
2020-02-19 05:00:00 -1.7 0 Calma 9 Nordeste 0 -- -- 89
2020-02-19 04:00:00 -0.1 6 Este 10 Este 0 -- -- 87
2020-02-19 03:00:00 -0.3 4 Este 10 Nordeste 0 -- -- 90
2020-02-19 02:00:00 -0.8 0 Calma 6 Nordeste 0 -- -- 89
2020-02-19 01:00:00 0.6 0 Calma 6 Oeste 0 -- -- 81
2020-02-19 00:00:00 2.8 0 Calma 10 Sudoeste 0 -- -- 77
2020-02-18 23:00:00 3.1 5 Sudoeste 17 Sudoeste 0 -- -- 75
2020-02-18 22:00:00 3.3 5 Sudoeste 16 Sudoeste 0 -- -- 74
2020-02-18 21:00:00 3.8 5 Sudoeste 19 Sudoeste 0 -- -- 71
2020-02-18 20:00:00 4.1 7 Sudoeste 20 Sudoeste 0 -- -- 69
2020-02-18 19:00:00 4 4 Sudoeste 21 Sudoeste 0 -- -- 68
2020-02-18 18:00:00 4.9 8 Sudoeste 22 Oeste 0 -- -- 64
2020-02-18 17:00:00 6 5 Sudoeste 20 Sudoeste 0 -- -- 55
2020-02-18 16:00:00 7 6 Sudoeste 19 Oeste 0 -- -- 49
2020-02-18 15:00:00 8.6 8 Sudoeste 20 Sudoeste 0 -- -- 47
2020-02-18 14:00:00 9.4 6 Sudoeste 15 Sudoeste 0 -- -- 48
2020-02-18 13:00:00 8.8 5 Sudoeste 22 Sudoeste 0 -- -- 52
2020-02-18 12:00:00 7 3 Sudoeste 9 Sudoeste 0 -- -- 57
2020-02-18 11:00:00 4.5 2 Sudoeste 5 Sudoeste 0 -- -- 80
2020-02-18 10:00:00 1.2 0 Calma 7 Oeste 0 -- -- 94
2020-02-18 09:00:00 1.4 3 Oeste 7 Oeste 0 -- -- 95
2020-02-18 08:00:00 1.5 0 Calma 5 Oeste 0 -- -- 95
2020-02-18 07:00:00 1.6 0 Calma 5 Nordeste 0 -- -- 93
2020-02-18 06:00:00 1.4 3 Norte 9 Nordeste 0 -- -- 81
2020-02-18 05:00:00 1.7 3 Nordeste 6 Nordeste 0 -- -- 90
2020-02-18 04:00:00 1.5 0 Calma 3 Nordeste 0 -- -- 93
2020-02-18 03:00:00 2.4 0 Calma 5 Sudeste 0 -- -- 92
2020-02-18 02:00:00 3 0 Calma 7 Sudoeste 0 -- -- 90
2020-02-18 01:00:00 3.4 0 Calma 8 Noroeste 0 -- -- 90
2020-02-18 00:00:00 3.3 0 Calma 8 Noroeste 0 -- -- 90
2020-02-17 23:00:00 3.5 2 Oeste 14 Sudoeste 0 -- -- 90
2020-02-17 22:00:00 3.6 4 Sudoeste 13 Oeste 0 -- -- 90
2020-02-17 21:00:00 4.2 4 Sudoeste 21 Sudoeste 0 -- -- 87
2020-02-17 20:00:00 4.3 7 Sudoeste 21 Sudoeste 0 -- -- 87
2020-02-17 19:00:00 5.3 6 Sudoeste 18 Sudoeste 0 -- -- 87
2020-02-17 18:00:00 6 5 Sudoeste 18 Sudoeste 0 -- -- 89
2020-02-17 17:00:00 6.4 8 Sudoeste 25 Sudoeste 0 -- -- 86
2020-02-17 16:00:00 7.1 9 Sudoeste 29 Sudoeste 0 -- -- 84
2020-02-17 15:00:00 10.2 9 Sudoeste 31 Sudoeste 0 -- -- 69
2020-02-17 14:00:00 12.3 10 Sudoeste 33 Sudoeste 0 -- -- 60
2020-02-17 13:00:00 13.5 10 Sudoeste 27 Sudoeste 0 -- -- 56
2020-02-17 12:00:00 13.8 9 Sudoeste 28 Sudoeste 0 -- -- 48
2020-02-17 11:00:00 13.1 5 Sudoeste 18 Sudoeste 0 -- -- 50
2020-02-17 10:00:00 8.6 0 Calma 10 Este 0 -- -- 58
2020-02-17 09:00:00 8.9 3 Sur 16 Este 0 -- -- 56
2020-02-17 08:00:00 10 8 Este 17 Este 0 -- -- 52
2020-02-17 07:00:00 7.3 5 Este 14 Este 0 -- -- 59
2020-02-17 06:00:00 9.6 7 Este 17 Este 0 -- -- 54
2020-02-17 05:00:00 9.5 5 Sudeste 18 Este 0 -- -- 54
2020-02-17 04:00:00 9.1 5 Este 16 Este 0 -- -- 53
2020-02-17 03:00:00 10.2 6 Este 17 Sudeste 0 -- -- 50
2020-02-17 02:00:00 10.2 7 Este 18 Este 0 -- -- 50
2020-02-17 01:00:00 9.9 6 Este 16 Este 0 -- -- 49
2020-02-17 00:00:00 10.8 8 Este 18 Este 0 -- -- 48
2020-02-16 23:00:00 10.7 6 Este 17 Este 0 -- -- 48
2020-02-16 22:00:00 11.7 6 Este 17 Sudeste 0 -- -- 47
2020-02-16 21:00:00 12.2 5 Este 17 Este 0 -- -- 45
2020-02-16 20:00:00 12.7 5 Este 15 Nordeste 0 -- -- 43
2020-02-16 19:00:00 14 5 Este 17 Nordeste 0 -- -- 41
2020-02-16 18:00:00 15 7 Nordeste 16 Nordeste 0 -- -- 41
2020-02-16 17:00:00 16.1 4 Este 10 Este 0 -- -- 41
2020-02-16 16:00:00 19.9 0 Calma 5 Oeste 0 -- -- 31
2020-02-16 15:00:00 20.6 3 Sudoeste 14 Sudoeste 0 -- -- 27
2020-02-16 14:00:00 22.5 4 Sudoeste 24 Oeste 0 -- -- 24
2020-02-16 13:00:00 21.8 3 Este 9 Nordeste 0 -- -- 29
2020-02-16 12:00:00 17.4 0 Calma 13 Sudeste 0 -- -- 38
2020-02-16 11:00:00 14.9 7 Este 15 Sudeste 0 -- -- 42
2020-02-16 10:00:00 12.8 8 Este 18 Este 0 -- -- 43
2020-02-16 09:00:00 10.7 6 Sudeste 17 Nordeste 0 -- -- 45
2020-02-16 08:00:00 9.3 7 Este 18 Este 0 -- -- 46
2020-02-16 07:00:00 9.3 10 Este 19 Este 0 -- -- 46
2020-02-16 06:00:00 8.9 7 Este 19 Este 0 -- -- 49
2020-02-16 05:00:00 9.3 9 Este 18 Este 0 -- -- 49
2020-02-16 04:00:00 8.7 8 Este 18 Este 0 -- -- 50
2020-02-16 03:00:00 8.8 5 Este 19 Este 0 -- -- 50
2020-02-16 02:00:00 8.1 6 Este 23 Este 0 -- -- 49
2020-02-16 01:00:00 8.8 6 Sudeste 19 Este 0 -- -- 51
2020-02-16 00:00:00 8.8 4 Este 20 Este 0 -- -- 49
2020-02-15 23:00:00 9.3 8 Este 20 Este 0 -- -- 49
2020-02-15 22:00:00 8.9 4 Este 15 Este 0 -- -- 49
2020-02-15 21:00:00 11.1 4 Este 14 Sudeste 0 -- -- 46
2020-02-15 20:00:00 8.3 3 Sudeste 12 Este 0 -- -- 53
2020-02-15 19:00:00 9.6 6 Este 13 Este 0 -- -- 51
2020-02-15 18:00:00 11.5 4 Este 8 Nordeste 0 -- -- 48
2020-02-15 17:00:00 13.9 2 Este 13 Noroeste 0 -- -- 38
2020-02-15 16:00:00 17.7 2 Oeste 12 Oeste 0 -- -- 28
2020-02-15 15:00:00 19.8 3 Oeste 14 Oeste 0 -- -- 29
2020-02-15 14:00:00 19.5 3 Sudoeste 7 Sudoeste 0 -- -- 31
2020-02-15 13:00:00 16.4 3 Este 6 Sudeste 0 -- -- 39
2020-02-15 12:00:00 12.2 3 Este 5 Sudeste 0 -- -- 48
2020-02-15 11:00:00 5.7 0 Calma 5 Nordeste 0 -- -- 64
2020-02-15 10:00:00 3.3 0 Calma 5 Nordeste 0 -- -- 70
2020-02-15 09:00:00 3.1 3 Sudeste 16 Este 0 -- -- 64
2020-02-15 08:00:00 2.7 2 Este 12 Este 0 -- -- 64
2020-02-15 07:00:00 3.1 0 Calma 16 Este 0 -- -- 59
2020-02-15 06:00:00 2.1 3 Este 11 Este 0 -- -- 67
2020-02-15 05:00:00 2.5 0 Calma 14 Este 0 -- -- 63
2020-02-15 04:00:00 1.5 2 Nordeste 8 Nordeste 0 -- -- 68
2020-02-15 03:00:00 1.3 2 Este 8 Este 0 -- -- 71
2020-02-15 02:00:00 1.5 0 Calma 7 Nordeste 0 -- -- 72
2020-02-15 01:00:00 2.2 0 Calma 11 Nordeste 0 -- -- 71
2020-02-15 00:00:00 2.5 2 Este 10 Este 0 -- -- 74
2020-02-14 23:00:00 2.5 3 Nordeste 15 Este 0 -- -- 76
2020-02-14 22:00:00 3.6 5 Este 10 Este 0 -- -- 78
2020-02-14 21:00:00 3.4 3 Este 13 Nordeste 0 -- -- 85
2020-02-14 20:00:00 4.4 2 Este 11 Este 0 -- -- 82
2020-02-14 19:00:00 5.5 3 Nordeste 5 Sudeste 0 -- -- 81
2020-02-14 18:00:00 9.1 2 Sur 13 Sudeste 0 -- -- 65
2020-02-14 17:00:00 10.8 2 Sur 15 Sudoeste 0 -- -- 56
2020-02-14 16:00:00 12.2 4 Sudoeste 18 Sudoeste 0 -- -- 44
2020-02-14 15:00:00 15.4 6 Oeste 23 Oeste 0 -- -- 38
2020-02-14 14:00:00 14.8 5 Oeste 20 Oeste 0 -- -- 41
2020-02-14 13:00:00 13.5 3 Sudoeste 7 Sudoeste 0 -- -- 45
2020-02-14 12:00:00 8.9 3 Sudoeste 7 Sudoeste 0 -- -- 64
2020-02-14 11:00:00 3.5 0 Calma 5 Nordeste 0 -- -- 88
2020-02-14 10:00:00 2 0 Calma 9 Este 0 -- -- 90
2020-02-14 09:00:00 1.7 3 Este 13 Nordeste 0 -- -- 90
2020-02-14 08:00:00 2.7 7 Nordeste 13 Este 0 -- -- 84
2020-02-14 07:00:00 1.8 2 Este 9 Nordeste 0 -- -- 91
2020-02-14 06:00:00 3.7 5 Este 13 Este 0 -- -- 85
2020-02-14 05:00:00 4.8 3 Nordeste 6 Este 0 -- -- 90
2020-02-14 04:00:00 6.2 0 Calma 3 Sudeste 0 -- -- 92
2020-02-14 03:00:00 6.1 0 Calma 3 Sudeste 0 -- -- 91
2020-02-14 02:00:00 6.2 0 Calma 9 Sudeste 0 -- -- 90
2020-02-14 01:00:00 6.7 0 Calma 8 Nordeste 0 -- -- 90
2020-02-14 00:00:00 7 3 Nordeste 7 Norte 0 -- -- 89
2020-02-13 23:00:00 6.4 0 Calma 6 Este 0 -- -- 86
2020-02-13 22:00:00 6.8 2 Nordeste 8 Este 0 -- -- 85
2020-02-13 21:00:00 7.4 2 Este 9 Nordeste 0 -- -- 80
2020-02-13 20:00:00 7.7 3 Nordeste 8 Nordeste 0 -- -- 75
2020-02-13 19:00:00 9.6 2 Sudoeste 15 Sudoeste 0 -- -- 65
2020-02-13 18:00:00 11.2 5 Sudoeste 17 Oeste 0 -- -- 58
2020-02-13 17:00:00 11.9 6 Sudoeste 24 Sudoeste 0 -- -- 52
2020-02-13 16:00:00 13 6 Sudoeste 18 Sudoeste 0 -- -- 45
2020-02-13 15:00:00 16 6 Sudoeste 18 Oeste 0 -- -- 39
2020-02-13 14:00:00 16.6 5 Sudoeste 15 Sudoeste 0 -- -- 41
2020-02-13 13:00:00 15.4 5 Sudoeste 11 Sudoeste 0 -- -- 39
2020-02-13 12:00:00 11.3 4 Este 7 Sudeste 0 -- -- 58
2020-02-13 11:00:00 6.8 0 Calma 11 Este 0 -- -- 68
2020-02-13 10:00:00 5.6 0 Calma 15 Este 0 -- -- 73
2020-02-13 09:00:00 4.2 8 Este 17 Este 0 -- -- 72
2020-02-13 08:00:00 4.5 5 Este 13 Este 0 -- -- 74
2020-02-13 07:00:00 4.5 4 Este 17 Este 0 -- -- 73
2020-02-13 06:00:00 5.4 6 Este 16 Este 0 -- -- 74
2020-02-13 05:00:00 4.6 4 Este 14 Nordeste 0 -- -- 77
2020-02-13 04:00:00 4.9 2 Este 14 Nordeste 0 -- -- 74
2020-02-13 03:00:00 5.9 3 Este 13 Norte 0 -- -- 76
2020-02-13 02:00:00 6.1 4 Este 11 Este 0 -- -- 74
2020-02-13 01:00:00 5.6 5 Sudeste 12 Sudeste 0 -- -- 77
2020-02-13 00:00:00 2.2 2 Este 9 Este 0 -- -- 92
2020-02-12 23:00:00 2.2 0 Calma 11 Este 0 -- -- 91
2020-02-12 22:00:00 2.7 4 Este 13 Nordeste 0 -- -- 90
2020-02-12 21:00:00 2.9 0 Calma 6 Nordeste 0 -- -- 91
2020-02-12 20:00:00 3.2 0 Calma 3 Norte 0 -- -- 88
2020-02-12 19:00:00 5 3 Este 6 Este 0 -- -- 81
2020-02-12 18:00:00 7.6 0 Calma 8 Sudeste 0 -- -- 69
2020-02-12 17:00:00 8.9 3 Sudeste 13 Sudoeste 0 -- -- 63
2020-02-12 16:00:00 9.5 5 Sudoeste 16 Oeste 0 -- -- 61
2020-02-12 15:00:00 11.2 6 Sudoeste 20 Oeste 0 -- -- 58
2020-02-12 14:00:00 11 5 Oeste 17 Oeste 0 -- -- 59
2020-02-12 13:00:00 10.2 7 Sudoeste 18 Sudoeste 0 -- -- 60
2020-02-12 12:00:00 9.1 6 Sudoeste 17 Sudoeste 0 -- -- 64
2020-02-12 11:00:00 6.3 0 Calma 3 Oeste 0 -- -- 76
2020-02-12 10:00:00 4.8 0 Calma 9 Nordeste 0 -- -- 82
2020-02-12 09:00:00 3.6 5 Nordeste 8 Nordeste 0 -- -- 84
2020-02-12 08:00:00 4.1 0 Calma 5 Este 0 -- -- 88
2020-02-12 07:00:00 4.6 4 Este 10 Este 0 -- -- 85
2020-02-12 06:00:00 4.5 0 Calma 2 Nordeste 0 -- -- 94
2020-02-12 05:00:00 4.5 0 Calma 4 Sudeste 0 -- -- 94
2020-02-12 04:00:00 4.5 0 Calma 10 Este 0 -- -- 94
2020-02-12 03:00:00 4.2 5 Nordeste 9 Este 0 -- -- 95
2020-02-12 02:00:00 4.1 0 Calma 12 Este 0 -- -- 93
2020-02-12 01:00:00 4 0 Calma 7 Este 0 -- -- 93
2020-02-12 00:00:00 4.5 3 Este 6 Este 0 -- -- 92
2020-02-11 23:00:00 5.8 0 Calma 5 Sudoeste 0 -- -- 90
2020-02-11 22:00:00 6 0 Calma 7 Oeste 0 -- -- 88
2020-02-11 21:00:00 6.7 2 Sur 10 Sudoeste 0 -- -- 84
2020-02-11 20:00:00 7.5 5 Sudoeste 14 Sudoeste 0 -- -- 81
2020-02-11 19:00:00 8 4 Sudoeste 17 Sudoeste 0 -- -- 79
2020-02-11 18:00:00 8.5 5 Sudoeste 21 Sudoeste 0 -- -- 80
2020-02-11 17:00:00 9.3 5 Oeste 18 Sudoeste 0 -- -- 77
2020-02-11 16:00:00 10.5 2 Sudoeste 8 Oeste 0 -- -- 74
2020-02-11 15:00:00 9.8 3 Sudoeste 9 Sudoeste 0 -- -- 76
2020-02-11 14:00:00 9.4 3 Sudoeste 8 Sudoeste 0 -- -- 79
2020-02-11 13:00:00 8.3 4 Sudoeste 12 Oeste 0 -- -- 83
2020-02-11 12:00:00 7.8 4 Oeste 19 Sudoeste 0 -- -- 84
2020-02-11 11:00:00 7.8 7 Sudoeste 18 Sudoeste 0 -- -- 81
2020-02-11 10:00:00 4.7 3 Nordeste 7 Este 0 -- -- 80
2020-02-11 09:00:00 4.1 6 Nordeste 12 Nordeste 0 -- -- 78
2020-02-11 08:00:00 2.4 0 Calma 11 Este 0 -- -- 81
2020-02-11 07:00:00 2.4 3 Nordeste 9 Nordeste 0 -- -- 79
2020-02-11 06:00:00 2.5 0 Calma 16 Este 0 -- -- 76
2020-02-11 05:00:00 3.2 5 Este 13 Nordeste 0 -- -- 74
2020-02-11 04:00:00 3 2 Sudeste 12 Este 0 -- -- 74
2020-02-11 03:00:00 3.4 4 Este 16 Este 0 -- -- 75
2020-02-11 02:00:00 2.5 2 Nordeste 14 Este 0 -- -- 84
2020-02-11 01:00:00 4 7 Este 14 Nordeste 0 -- -- 81
2020-02-11 00:00:00 3 2 Nordeste 6 Nordeste 0 -- -- 87
2020-02-10 23:00:00 5.5 5 Este 12 Este 0 -- -- 80
2020-02-10 22:00:00 6.4 8 Este 13 Este 0 -- -- 78
2020-02-10 21:00:00 6.8 5 Este 13 Nordeste 0 -- -- 78
2020-02-10 20:00:00 6.6 0 Calma 10 Este 0 -- -- 78
2020-02-10 19:00:00 9 6 Nordeste 13 Sudoeste 0 -- -- 67
2020-02-10 18:00:00 11.6 2 Sur 9 Nordeste 0 -- -- 59
2020-02-10 17:00:00 12 0 Calma 10 Sudoeste 0 -- -- 57
2020-02-10 16:00:00 14.7 3 Sudoeste 18 Sudoeste 0 -- -- 48
2020-02-10 15:00:00 17.5 5 Sudoeste 20 Oeste 0 -- -- 43
2020-02-10 14:00:00 18.6 4 Sudoeste 14 Sudoeste 0 -- -- 44
2020-02-10 13:00:00 16.3 0 Calma 6 Sudoeste 0 -- -- 55
2020-02-10 12:00:00 12.1 2 Este 5 Sudeste 0 -- -- 72
2020-02-10 11:00:00 6.6 2 Este 4 Sudeste 0 -- -- 90
2020-02-10 10:00:00 4.9 0 Calma 8 Nordeste 0 -- -- 92
2020-02-10 09:00:00 4.3 0 Calma 5 Nordeste 0 -- -- 91
2020-02-10 08:00:00 5.3 0 Calma 16 Este 0 -- -- 87
2020-02-10 07:00:00 7 6 Este 15 Este 0 -- -- 83
2020-02-10 06:00:00 6.4 5 Este 13 Este 0 -- -- 83
2020-02-10 05:00:00 5.3 0 Calma 8 Nordeste 0 -- -- 83
2020-02-10 04:00:00 5.4 0 Calma 14 Este 0 -- -- 77
2020-02-10 03:00:00 6.2 5 Este 12 Nordeste 0 -- -- 72
2020-02-10 02:00:00 6.9 0 Calma 12 Este 0 -- -- 68
2020-02-10 01:00:00 8.1 8 Este 17 Este 0 -- -- 63
2020-02-10 00:00:00 6.7 7 Este 14 Este 0 -- -- 65
2020-02-09 23:00:00 7.3 5 Este 12 Este 0 -- -- 64
2020-02-09 22:00:00 7.9 6 Este 20 Este 0 -- -- 62
2020-02-09 21:00:00 8.2 3 Sudeste 14 Este 0 -- -- 61
2020-02-09 20:00:00 8.9 5 Este 14 Este 0 -- -- 58
2020-02-09 19:00:00 8.8 3 Este 11 Nordeste 0 -- -- 58
2020-02-09 18:00:00 11.3 4 Nordeste 17 Nordeste 0 -- -- 50
2020-02-09 17:00:00 13.1 7 Este 18 Nordeste 0 -- -- 44
2020-02-09 16:00:00 14.2 10 Nordeste 22 Este 0 -- -- 40
2020-02-09 15:00:00 14.7 10 Nordeste 22 Nordeste 0 -- -- 40
2020-02-09 14:00:00 13.8 11 Nordeste 24 Nordeste 0 -- -- 42
2020-02-09 13:00:00 13.1 7 Nordeste 17 Nordeste 0 -- -- 44
2020-02-09 12:00:00 11.3 7 Nordeste 18 Este 0 -- -- 50
2020-02-09 11:00:00 6.2 2 Sudeste 18 Este 0 -- -- 66
2020-02-09 10:00:00 4.6 3 Este 15 Este 0 -- -- 67
2020-02-09 09:00:00 4.4 6 Este 15 Sudeste 0 -- -- 67
2020-02-09 08:00:00 3.8 7 Este 23 Sudeste 0 -- -- 68
2020-02-09 07:00:00 2.6 4 Este 22 Sudeste 0 -- -- 74
2020-02-09 06:00:00 2.9 6 Este 17 Este 0 -- -- 72
2020-02-09 05:00:00 3.1 6 Este 17 Este 0 -- -- 73
2020-02-09 04:00:00 3 4 Este 15 Este 0 -- -- 76
2020-02-09 03:00:00 1.8 2 Sudeste 14 Sudeste 0 -- -- 82
2020-02-09 02:00:00 1.8 5 Este 11 Este 0 -- -- 83
2020-02-09 01:00:00 1.8 4 Este 13 Nordeste 0 -- -- 85
2020-02-09 00:00:00 2.2 2 Nordeste 12 Este 0 -- -- 83
2020-02-08 23:00:00 3.5 3 Este 10 Este 0 -- -- 81
2020-02-08 22:00:00 3.9 4 Este 10 Nordeste 0 -- -- 81
2020-02-08 21:00:00 3.5 0 Calma 4 Nordeste 0 -- -- 80
2020-02-08 20:00:00 5.6 2 Nordeste 9 Sur 0 -- -- 73
2020-02-08 19:00:00 7.8 6 Sudoeste 22 Sudoeste 0 -- -- 64
2020-02-08 18:00:00 8.9 8 Sudoeste 20 Sudoeste 0 -- -- 56
2020-02-08 17:00:00 10.2 5 Sudoeste 20 Sudoeste 0 -- -- 46
2020-02-08 16:00:00 10.9 8 Sudoeste 19 Sudoeste 0 -- -- 40
2020-02-08 15:00:00 12 6 Sudoeste 24 Sudoeste 0 -- -- 37
2020-02-08 14:00:00 11.9 7 Sudoeste 18 Oeste 0 -- -- 37
2020-02-08 13:00:00 12 7 Sudoeste 20 Sudoeste 0 -- -- 37
2020-02-08 12:00:00 8.1 4 Sudoeste 14 Oeste 0 -- -- 54
2020-02-08 11:00:00 2.4 2 Nordeste 5 Nordeste 0 -- -- 72
2020-02-08 10:00:00 1 0 Calma 14 Nordeste 0 -- -- 71
2020-02-08 09:00:00 0.8 8 Nordeste 14 Nordeste 0 -- -- 68
2020-02-08 08:00:00 -1.5 0 Calma 5 Nordeste 0 -- -- 77
2020-02-08 07:00:00 -0.9 2 Nordeste 7 Nordeste 0 -- -- 75
2020-02-08 06:00:00 0 4 Este 11 Este 0 -- -- 73
2020-02-08 05:00:00 -0.2 0 Calma 12 Nordeste 0 -- -- 73
2020-02-08 04:00:00 0.1 2 Este 13 Nordeste 0 -- -- 70
2020-02-08 03:00:00 1.5 4 Este 16 Este 0 -- -- 66
2020-02-08 02:00:00 -0.2 2 Este 12 Nordeste 0 -- -- 73
2020-02-08 01:00:00 1.4 6 Este 14 Nordeste 0 -- -- 67
2020-02-08 00:00:00 0.4 0 Calma 5 Nordeste 0 -- -- 72
2020-02-07 23:00:00 1.2 0 Calma 5 Nordeste 0 -- -- 68
2020-02-07 22:00:00 1.5 0 Calma 7 Nordeste 0 -- -- 67
2020-02-07 21:00:00 2.2 0 Calma 10 Este 0 -- -- 61
2020-02-07 20:00:00 3.5 5 Este 12 Nordeste 0 -- -- 55
2020-02-07 19:00:00 4.9 2 Este 10 Sudeste 0 -- -- 52
2020-02-07 18:00:00 10.1 0 Calma 12 Oeste 0 -- -- 35
2020-02-07 17:00:00 12 2 Oeste 16 Sudoeste 0 -- -- 33
2020-02-07 16:00:00 13 6 Sudoeste 17 Sudoeste 0 -- -- 30
2020-02-07 15:00:00 13.9 5 Oeste 14 Oeste 0 -- -- 30
2020-02-07 14:00:00 14.1 3 Sudoeste 13 Sudoeste 0 -- -- 31
2020-02-07 13:00:00 14.8 3 Sudoeste 5 Sudoeste 0 -- -- 32
2020-02-07 12:00:00 8.6 0 Calma 5 Este 0 -- -- 50
2020-02-07 11:00:00 2.9 0 Calma 4 Nordeste 0 -- -- 62
2020-02-07 10:00:00 1.9 0 Calma 8 Nordeste 0 -- -- 62
2020-02-07 09:00:00 0.3 0 Calma 10 Este 0 -- -- 62
2020-02-07 08:00:00 1.4 3 Este 12 Nordeste 0 -- -- 58
2020-02-07 07:00:00 1.2 0 Calma 7 Sudoeste 0 -- -- 57
2020-02-07 06:00:00 2.4 0 Calma 16 Este 0 -- -- 50
2020-02-07 05:00:00 3.7 5 Este 21 Este 0 -- -- 46
2020-02-07 04:00:00 3.6 7 Este 21 Este 0 -- -- 45
2020-02-07 03:00:00 4 7 Este 17 Sudeste 0 -- -- 47
2020-02-07 02:00:00 4.3 5 Este 17 Este 0 -- -- 45
2020-02-07 01:00:00 4.7 7 Sudeste 20 Este 0 -- -- 46
2020-02-07 00:00:00 4 6 Este 19 Este 0 -- -- 48
2020-02-06 23:00:00 4.9 8 Este 16 Sudeste 0 -- -- 47
2020-02-06 22:00:00 4.1 4 Este 17 Este 0 -- -- 49
2020-02-06 21:00:00 5.1 5 Sudeste 15 Sudeste 0 -- -- 50
2020-02-06 20:00:00 3.1 0 Calma 17 Este 0 -- -- 51
2020-02-06 19:00:00 3.9 5 Este 13 Este 0 -- -- 50
2020-02-06 18:00:00 4.6 3 Nordeste 8 Este 0 -- -- 50
2020-02-06 17:00:00 7.3 3 Nordeste 10 Nordeste 0 -- -- 39
2020-02-06 16:00:00 10.3 2 Este 10 Nordeste 0 -- -- 34
2020-02-06 15:00:00 14 0 Calma 13 Sudoeste 0 -- -- 27
2020-02-06 14:00:00 14.3 3 Nordeste 13 Norte 0 -- -- 31
2020-02-06 13:00:00 11.8 4 Este 16 Nordeste 0 -- -- 35
2020-02-06 12:00:00 8.9 6 Este 19 Este 0 -- -- 34
2020-02-06 11:00:00 6.1 3 Este 25 Este 0 -- -- 36
2020-02-06 10:00:00 4.9 2 Sur 19 Este 0 -- -- 36
2020-02-06 09:00:00 5.9 6 Este 21 Nordeste 0 -- -- 32
2020-02-06 08:00:00 4.5 8 Este 18 Este 0 -- -- 35
2020-02-06 07:00:00 5 7 Este 20 Este 0 -- -- 32
2020-02-06 06:00:00 4.4 8 Este 18 Este 0 -- -- 40
2020-02-06 05:00:00 0 0 Calma 10 Sudeste 0 -- -- 52
2020-02-06 04:00:00 1.4 0 Calma 15 Este 0 -- -- 45
2020-02-06 03:00:00 4.1 6 Este 19 Sudeste 0 -- -- 36
2020-02-06 02:00:00 2.4 6 Este 17 Este 0 -- -- 42
2020-02-06 01:00:00 2.5 8 Este 19 Este 0 -- -- 44
2020-02-06 00:00:00 -1.5 2 Nordeste 8 Este 0 -- -- 65
2020-02-05 23:00:00 -1.6 2 Nordeste 9 Nordeste 0 -- -- 67
2020-02-05 22:00:00 -0.4 5 Este 15 Este 0 -- -- 64
2020-02-05 21:00:00 -0.6 2 Este 8 Nordeste 0 -- -- 67
2020-02-05 20:00:00 -0.2 4 Este 11 Este 0 -- -- 68
2020-02-05 19:00:00 0.6 4 Nordeste 9 Nordeste 0 -- -- 70
2020-02-05 18:00:00 2.2 0 Calma 8 Sudeste 0 -- -- 65
2020-02-05 17:00:00 5.5 3 Sudeste 12 Sudoeste 0 -- -- 43
2020-02-05 16:00:00 7.4 3 Sur 14 Noroeste 0 -- -- 33
2020-02-05 15:00:00 9.3 3 Sudoeste 9 Sudoeste 0 -- -- 32
2020-02-05 14:00:00 9.4 0 Calma 7 Oeste 0 -- -- 36
2020-02-05 13:00:00 6.9 0 Calma 8 Sudoeste 0 -- -- 41
2020-02-05 12:00:00 2.8 3 Sur 7 Sudoeste 0 -- -- 47
2020-02-05 11:00:00 -1.8 0 Calma 4 Este 0 -- -- 71
2020-02-05 10:00:00 -2.5 0 Calma 7 Este 0 -- -- 72
2020-02-05 09:00:00 -3.2 2 Nordeste 8 Sudeste 0 -- -- 75
2020-02-05 08:00:00 -2.6 4 Este 10 Este 0 -- -- 75
2020-02-05 07:00:00 -2.3 3 Este 12 Este 0 -- -- 79
2020-02-05 06:00:00 -1.9 6 Este 11 Este 0 -- -- 81
2020-02-05 05:00:00 -2.2 2 Este 9 Este 0 -- -- 86
2020-02-05 04:00:00 -1.1 4 Este 10 Este 0 -- -- 85
2020-02-05 03:00:00 -1.4 2 Nordeste 7 Este 0 -- -- 88
2020-02-05 02:00:00 0.6 3 Sudeste 10 Sudoeste 0 -- -- 83
2020-02-05 01:00:00 1.3 5 Sudoeste 14 Oeste 0 -- -- 80
2020-02-05 00:00:00 1.9 5 Sudoeste 15 Sur 0 -- -- 77
2020-02-04 23:00:00 2.5 6 Sudoeste 14 Sudoeste 0 -- -- 74
2020-02-04 22:00:00 2.7 3 Sudoeste 13 Oeste 0 -- -- 67
2020-02-04 21:00:00 3.1 4 Sudoeste 14 Sudoeste 0 -- -- 64
2020-02-04 20:00:00 3.7 4 Sudoeste 24 Sudoeste 0 -- -- 60
2020-02-04 19:00:00 5 8 Sudoeste 22 Sur 0 -- -- 55
2020-02-04 18:00:00 5.1 6 Sudoeste 22 Oeste 0 -- -- 56
2020-02-04 12:00:00 7 7 Sudoeste 21 Sudoeste 0.4 -- -- 90
2020-02-04 11:00:00 7.5 5 Sudoeste 18 Sudoeste 0.3 -- -- 87
2020-02-04 10:00:00 7.1 2 Sur 12 Sudeste 0 -- -- 78
2020-02-04 09:00:00 6 2 Este 10 Nordeste 0 -- -- 77
2020-02-04 08:00:00 5.2 3 Este 10 Sudeste 0 -- -- 79
2020-02-04 07:00:00 4.8 6 Nordeste 12 Este 0 -- -- 77
2020-02-04 06:00:00 4.1 3 Este 15 Este 0 -- -- 79
2020-02-04 05:00:00 4.6 8 Nordeste 13 Nordeste 0 -- -- 74
2020-02-04 04:00:00 3.5 0 Calma 11 Nordeste 0 -- -- 76
2020-02-04 03:00:00 3.5 0 Calma 16 Este 0 -- -- 73
2020-02-04 02:00:00 3.6 2 Nordeste 14 Sudeste 0 -- -- 72
2020-02-04 01:00:00 4.9 4 Este 11 Este 0 -- -- 68
2020-02-04 00:00:00 4.8 3 Este 14 Nordeste 0 -- -- 69
2020-02-03 23:00:00 5.9 0 Calma 17 Este 0 -- -- 65
2020-02-03 22:00:00 8.6 10 Este 18 Este 0 -- -- 56
2020-02-03 21:00:00 6.9 3 Nordeste 17 Este 0 -- -- 64
2020-02-03 20:00:00 9.6 8 Este 15 Nordeste 0 -- -- 57
2020-02-03 19:00:00 8.5 2 Este 15 Nordeste 0 -- -- 63
2020-02-03 18:00:00 9.3 5 Este 13 Nordeste 0 -- -- 60
2020-02-03 17:00:00 12.4 6 Este 12 Este 0 -- -- 51
2020-02-03 16:00:00 13 4 Nordeste 6 Nordeste 0 -- -- 55
2020-02-03 15:00:00 15.4 2 Este 5 Nordeste 0 -- -- 51
2020-02-03 14:00:00 15.8 2 Este 4 Este 0 -- -- 52
2020-02-03 13:00:00 13.2 2 Sudeste 5 Este 0 -- -- 58
2020-02-03 12:00:00 9.6 2 Este 4 Nordeste 0 -- -- 68
2020-02-03 11:00:00 7.4 2 Nordeste 8 Nordeste 0 -- -- 75
2020-02-03 10:00:00 7.3 4 Este 12 Este 0 -- -- 68
2020-02-03 09:00:00 5.8 5 Este 12 Este 0 -- -- 69
2020-02-03 08:00:00 6.4 5 Este 14 Nordeste 0 -- -- 65
2020-02-03 07:00:00 4.8 4 Este 13 Este 0 -- -- 71
2020-02-03 06:00:00 6.1 6 Este 14 Este 0 -- -- 69
2020-02-03 05:00:00 6 5 Nordeste 14 Este 0 -- -- 71
2020-02-03 04:00:00 6 5 Este 12 Nordeste 0 -- -- 75
2020-02-03 03:00:00 6 3 Este 11 Sudeste 0 -- -- 77
2020-02-03 02:00:00 6.5 5 Este 16 Este 0 -- -- 77
2020-02-03 01:00:00 6.7 5 Nordeste 17 Este 0 -- -- 76
2020-02-03 00:00:00 7.4 9 Este 16 Este 0 -- -- 74
2020-02-02 23:00:00 5.5 3 Este 8 Nordeste 0 -- -- 86
2020-02-02 22:00:00 5.8 0 Calma 6 Nordeste 0 -- -- 83
2020-02-02 21:00:00 7.5 0 Calma 16 Este 0 -- -- 76
2020-02-02 20:00:00 8.1 4 Nordeste 12 Este 0 -- -- 77
2020-02-02 19:00:00 9.3 5 Este 13 Nordeste 0 -- -- 72
2020-02-02 18:00:00 10.4 5 Este 10 Nordeste 0 -- -- 72
2020-02-02 17:00:00 11.4 0 Calma 8 Este 0 -- -- 71
2020-02-02 16:00:00 15.8 2 Sudoeste 14 Sudoeste 0 -- -- 49
2020-02-02 15:00:00 18.1 3 Este 8 Este 0 -- -- 46
2020-02-02 14:00:00 17.9 0 Calma 5 Nordeste 0 -- -- 50
2020-02-02 13:00:00 14.8 0 Calma 5 Norte 0 -- -- 49
2020-02-02 12:00:00 11.6 3 Este 9 Sudeste 0 -- -- 61
2020-02-02 11:00:00 7.3 0 Calma 11 Este 0 -- -- 75
2020-02-02 10:00:00 7 7 Este 14 Nordeste 0 -- -- 67
2020-02-02 09:00:00 5.1 6 Este 15 Este 0 -- -- 74
2020-02-02 08:00:00 5.3 6 Este 18 Nordeste 0 -- -- 71
2020-02-02 07:00:00 4.9 9 Nordeste 18 Este 0 -- -- 76
2020-02-02 06:00:00 3.3 0 Calma 15 Nordeste 0 -- -- 85
2020-02-02 05:00:00 4.8 6 Nordeste 17 Nordeste 0 -- -- 77
2020-02-02 04:00:00 3.2 4 Nordeste 12 Este 0 -- -- 83
2020-02-02 03:00:00 3.2 0 Calma 13 Este 0 -- -- 83
2020-02-02 02:00:00 5.1 7 Este 14 Nordeste 0 -- -- 75
2020-02-02 01:00:00 4.7 5 Este 14 Este 0 -- -- 76
2020-02-02 00:00:00 4.1 4 Este 13 Este 0 -- -- 83
2020-02-01 23:00:00 3.8 5 Nordeste 11 Nordeste 0 -- -- 87
2020-02-01 22:00:00 3.7 0 Calma 9 Este 0 -- -- 88
2020-02-01 21:00:00 5.2 4 Este 13 Nordeste 0 -- -- 84
2020-02-01 20:00:00 5.8 5 Nordeste 14 Este 0 -- -- 83
2020-02-01 19:00:00 6.9 6 Este 12 Nordeste 0 -- -- 80
2020-02-01 18:00:00 8 0 Calma 5 Sudeste 0 -- -- 81
2020-02-01 17:00:00 10.1 2 Este 4 Sudeste 0 -- -- 75
2020-02-01 16:00:00 11.6 0 Calma 10 Oeste 0 -- -- 70
2020-02-01 15:00:00 11.5 4 Sudoeste 10 Sudoeste 0 -- -- 72
2020-02-01 14:00:00 11.7 0 Calma 9 Sudoeste 0 -- -- 73
2020-02-01 13:00:00 10.4 2 Noroeste 10 Oeste 0 -- -- 77
2020-02-01 12:00:00 9.8 3 Oeste 10 Sudoeste 0 -- -- 78
2020-02-01 11:00:00 8.4 3 Este 10 Este 0.1 -- -- 85
2020-02-01 10:00:00 6.6 2 Este 10 Sudeste 0.2 -- -- 88
2020-02-01 09:00:00 6.1 0 Calma 11 Sudeste 0 -- -- 78
2020-02-01 08:00:00 5.5 3 Este 7 Nordeste 0 -- -- 73
2020-02-01 07:00:00 5.7 0 Calma 18 Este 0 -- -- 67
2020-02-01 06:00:00 6.9 7 Este 19 Nordeste 0 -- -- 61
2020-02-01 05:00:00 5.6 6 Este 17 Este 0 -- -- 62
2020-02-01 04:00:00 6.4 8 Este 21 Este 0 -- -- 60
2020-02-01 03:00:00 4.8 6 Este 15 Sudeste 0 -- -- 64
2020-02-01 02:00:00 5.7 6 Este 17 Sudeste 0 -- -- 66
2020-02-01 01:00:00 6.2 7 Este 15 Sudeste 0 -- -- 66
2020-02-01 00:00:00 3.3 3 Este 10 Este 0 -- -- 84
2020-01-31 23:00:00 3.6 3 Este 13 Nordeste 0 -- -- 84
2020-01-31 22:00:00 3.8 0 Calma 12 Nordeste 0 -- -- 86
2020-01-31 21:00:00 5 3 Este 15 Nordeste 0 -- -- 84
2020-01-31 20:00:00 5.3 7 Nordeste 12 Nordeste 0 -- -- 83
2020-01-31 19:00:00 5.7 0 Calma 5 Sudeste 0 -- -- 85
2020-01-31 18:00:00 7.5 2 Nordeste 8 Sur 0 -- -- 78
2020-01-31 17:00:00 10.5 3 Sudoeste 11 Oeste 0 -- -- 61
2020-01-31 16:00:00 12.9 3 Oeste 16 Sudoeste 0 -- -- 55
2020-01-31 15:00:00 14.4 5 Sudoeste 12 Sudoeste 0 -- -- 54
2020-01-31 14:00:00 14 2 Sudoeste 8 Sudoeste 0 -- -- 57
2020-01-31 13:00:00 13.7 3 Nordeste 7 Nordeste 0 -- -- 60
2020-01-31 12:00:00 10.3 3 Este 7 Nordeste 0 -- -- 74
2020-01-31 11:00:00 8.4 0 Calma 4 Nordeste 0.2 -- -- 88
2020-01-31 10:00:00 7.2 0 Calma 8 Este 0.1 -- -- 92
2020-01-31 09:00:00 5.6 0 Calma 9 Este 0 -- -- 94
2020-01-31 08:00:00 5.2 0 Calma 5 Este 0 -- -- 93
2020-01-31 07:00:00 5.1 0 Calma 4 Noroeste 0 -- -- 93
2020-01-31 06:00:00 5.7 3 Este 9 Este 0 -- -- 91
2020-01-31 05:00:00 5.2 2 Este 8 Este 0 -- -- 93
2020-01-31 04:00:00 5.7 2 Este 14 Este 0 -- -- 92
2020-01-31 03:00:00 6.2 8 Nordeste 13 Nordeste 0.1 -- -- 91
2020-01-31 02:00:00 5.6 0 Calma 6 Este 0 -- -- 88
2020-01-31 01:00:00 5.6 2 Nordeste 5 Nordeste 0 -- -- 88
2020-01-31 00:00:00 6.1 2 Este 14 Este 0 -- -- 87
2020-01-30 23:00:00 6.3 0 Calma 11 Este 0 -- -- 86
2020-01-30 22:00:00 6.8 2 Este 10 Sudeste 0 -- -- 84
2020-01-30 21:00:00 7.2 5 Este 13 Este 0 -- -- 82
2020-01-30 20:00:00 7.5 7 Nordeste 15 Nordeste 0 -- -- 81
2020-01-30 19:00:00 7.5 0 Calma 5 Nordeste 0 -- -- 79
2020-01-30 18:00:00 8.2 0 Calma 5 Este 0 -- -- 76
2020-01-30 17:00:00 9.3 0 Calma 8 Nordeste 0 -- -- 71
2020-01-30 16:00:00 12.4 5 Nordeste 13 Nordeste 0 -- -- 55
2020-01-30 15:00:00 14.4 2 Nordeste 6 Sudoeste 0 -- -- 50
2020-01-30 14:00:00 14.8 3 Sudoeste 9 Oeste 0 -- -- 52
2020-01-30 13:00:00 13.8 3 Nordeste 7 Nordeste 0 -- -- 55
2020-01-30 12:00:00 11.5 2 Sudoeste 11 Este 0 -- -- 63
2020-01-30 11:00:00 9.6 3 Este 8 Este 0 -- -- 68
2020-01-30 10:00:00 7.4 0 Calma 12 Nordeste 0 -- -- 77
2020-01-30 09:00:00 4 3 Nordeste 6 Nordeste 0 -- -- 90
2020-01-30 08:00:00 3.6 0 Calma 5 Nordeste 0 -- -- 89
2020-01-30 07:00:00 4.1 3 Este 13 Este 0 -- -- 86
2020-01-30 06:00:00 3.9 0 Calma 12 Este 0 -- -- 84
2020-01-30 05:00:00 4.5 3 Nordeste 9 Nordeste 0 -- -- 83
2020-01-30 04:00:00 4.8 4 Este 9 Nordeste 0 -- -- 79
2020-01-30 03:00:00 4.4 0 Calma 15 Este 0 -- -- 75
2020-01-30 02:00:00 6.8 8 Este 17 Este 0 -- -- 62
2020-01-30 01:00:00 6.9 5 Este 12 Nordeste 0 -- -- 62
2020-01-30 00:00:00 6.9 5 Este 13 Este 0 -- -- 58
2020-01-29 23:00:00 4.4 0 Calma 15 Este 0 -- -- 68
2020-01-29 22:00:00 1.9 0 Calma 9 Sudeste 0 -- -- 77
2020-01-29 21:00:00 2.1 5 Este 13 Este 0 -- -- 74
2020-01-29 20:00:00 2.7 3 Este 14 Este 0 -- -- 72
2020-01-29 19:00:00 3.6 4 Este 10 Este 0 -- -- 70
2020-01-29 18:00:00 4.9 0 Calma 5 Este 0 -- -- 68
2020-01-29 17:00:00 8.3 0 Calma 13 Sudoeste 0 -- -- 44
2020-01-29 16:00:00 10.6 3 Sudoeste 13 Sudoeste 0 -- -- 36
2020-01-29 15:00:00 11.1 4 Sudoeste 9 Oeste 0 -- -- 34
2020-01-29 14:00:00 9.2 0 Calma 6 Sudeste 0 -- -- 50
2020-01-29 13:00:00 6.2 3 Este 5 Sudeste 0 -- -- 57
2020-01-29 12:00:00 2.5 2 Sudeste 6 Nordeste 0 -- -- 64
2020-01-29 11:00:00 1 2 Este 7 Este 0 -- -- 72
2020-01-29 10:00:00 0.7 3 Nordeste 13 Nordeste 0 -- -- 66
2020-01-29 09:00:00 -0.4 3 Este 13 Este 0 -- -- 66
2020-01-29 08:00:00 -0.2 5 Este 12 Sudeste 0 -- -- 61
2020-01-29 07:00:00 -0.6 6 Este 15 Este 0 -- -- 63
2020-01-29 06:00:00 -0.8 5 Este 12 Nordeste 0 -- -- 67
2020-01-29 05:00:00 -1.4 4 Nordeste 11 Este 0 -- -- 73
2020-01-29 04:00:00 -1.5 3 Este 14 Este 0 -- -- 75
2020-01-29 03:00:00 -0.9 5 Este 14 Nordeste 0 -- -- 75
2020-01-29 02:00:00 -1.1 4 Este 10 Este 0 -- -- 81
2020-01-29 01:00:00 -0.6 3 Este 11 Este 0 -- -- 82
2020-01-29 00:00:00 -0.2 4 Este 13 Nordeste 0 -- -- 85
2020-01-28 23:00:00 0.3 0 Calma 12 Este 0 -- -- 86
2020-01-28 22:00:00 2.4 5 Este 13 Este 0 -- -- 80
2020-01-28 21:00:00 0 2 Nordeste 5 Nordeste 0 -- -- 92
2020-01-28 20:00:00 0.5 0 Calma 5 Sudeste 0 -- -- 90
2020-01-28 19:00:00 1.8 0 Calma 6 Sudeste 0 -- -- 86
2020-01-28 18:00:00 3.9 2 Nordeste 10 Oeste 0 -- -- 76
2020-01-28 17:00:00 6.9 3 Sudoeste 16 Oeste 0 -- -- 63
2020-01-28 16:00:00 6.9 3 Sudoeste 12 Oeste 0 -- -- 59
2020-01-28 15:00:00 8.7 4 Sudoeste 13 Sudoeste 0 -- -- 57
2020-01-28 14:00:00 9.9 3 Sudoeste 9 Oeste 0 -- -- 55
2020-01-28 13:00:00 8.1 3 Sudoeste 9 Sudoeste 0 -- -- 63
2020-01-28 12:00:00 3.3 2 Sur 5 Sudoeste 0 -- -- 83
2020-01-28 11:00:00 1.6 2 Este 14 Nordeste 0 -- -- 85
2020-01-28 10:00:00 0.3 2 Norte 7 Este 0 -- -- 87
2020-01-28 09:00:00 1.3 6 Este 15 Este 0 -- -- 80
2020-01-28 08:00:00 0 3 Nordeste 9 Este 0 -- -- 86
2020-01-28 07:00:00 2.1 2 Sudeste 21 Nordeste 0 -- -- 74
2020-01-28 06:00:00 3 6 Este 16 Este 0 -- -- 71
2020-01-28 05:00:00 2.9 5 Este 15 Este 0 -- -- 72
2020-01-28 04:00:00 3.3 5 Este 14 Este 0 -- -- 72
2020-01-28 03:00:00 4.1 5 Este 15 Este 0 -- -- 69
2020-01-28 02:00:00 4.4 5 Este 22 Este 0 -- -- 68
2020-01-28 01:00:00 3 5 Este 15 Nordeste 0 -- -- 73
2020-01-28 00:00:00 3.3 7 Este 18 Este 0 -- -- 71
2020-01-27 23:00:00 2.9 6 Este 17 Este 0 -- -- 75
2020-01-27 22:00:00 4 6 Este 21 Nordeste 0 -- -- 72
2020-01-27 21:00:00 3.7 5 Este 14 Este 0 -- -- 75
2020-01-27 20:00:00 4.1 5 Este 10 Sudeste 0 -- -- 75
2020-01-27 19:00:00 4.9 2 Sudeste 11 Nordeste 0 -- -- 75
2020-01-27 18:00:00 6.1 3 Este 14 Este 0 -- -- 65
2020-01-27 17:00:00 7.7 8 Este 20 Nordeste 0 -- -- 55
2020-01-27 16:00:00 8.6 9 Nordeste 22 Nordeste 0 -- -- 49
2020-01-27 15:00:00 8.5 9 Nordeste 20 Nordeste 0 -- -- 49
2020-01-27 14:00:00 8.6 4 Este 20 Este 0 -- -- 50
2020-01-27 13:00:00 7.9 6 Este 20 Nordeste 0 -- -- 53
2020-01-27 12:00:00 7.4 6 Este 19 Este 0 -- -- 53
2020-01-27 11:00:00 5.1 6 Este 14 Este 0 -- -- 61
2020-01-27 10:00:00 2.1 2 Nordeste 15 Este 0 -- -- 78
2020-01-27 09:00:00 2.1 6 Este 16 Este 0 -- -- 67
2020-01-27 08:00:00 0.9 4 Este 15 Sudeste 0 -- -- 71
2020-01-27 07:00:00 0.9 7 Este 16 Este 0 -- -- 71
2020-01-27 06:00:00 0.3 6 Este 17 Sudeste 0 -- -- 74
2020-01-27 05:00:00 1.1 6 Sudeste 22 Sudeste 0 -- -- 67
2020-01-27 04:00:00 0.6 4 Sudeste 14 Nordeste 0 -- -- 74
2020-01-27 03:00:00 0.6 4 Este 14 Sudeste 0 -- -- 81
2020-01-27 02:00:00 1.1 6 Este 18 Este 0 -- -- 74
2020-01-27 01:00:00 0.2 3 Este 15 Sudeste 0 -- -- 86
2020-01-27 00:00:00 0.4 3 Este 12 Este 0 -- -- 87
2020-01-26 23:00:00 0.8 4 Este 11 Este 0 -- -- 89
2020-01-26 22:00:00 0.5 4 Este 11 Este 0 -- -- 91
2020-01-26 21:00:00 0.4 0 Calma 5 Nordeste 0 -- -- 95
2020-01-26 20:00:00 1.9 0 Calma 7 Nordeste 0 -- -- 94
2020-01-26 19:00:00 3 0 Calma 7 Este 0 -- -- 93
2020-01-26 18:00:00 3.9 4 Este 6 Este 0.7 -- -- 88
2020-01-26 17:00:00 4.6 0 Calma 4 Sudoeste 0 -- -- 87
2020-01-26 16:00:00 5.3 0 Calma 6 Sudoeste 0 -- -- 81
2020-01-26 15:00:00 6 3 Oeste 5 Oeste 0 -- -- 79
2020-01-26 14:00:00 4.4 0 Calma 8 Sudoeste 0 -- -- 85
2020-01-26 13:00:00 3.7 3 Sudoeste 7 Sudoeste 0 -- -- 90
2020-01-26 12:00:00 3 0 Calma 4 Nordeste 0.1 -- -- 91
2020-01-26 11:00:00 1.3 0 Calma 4 Oeste 0.8 -- -- 95
2020-01-26 10:00:00 1.2 0 Calma 2 Sudoeste 0.7 -- -- 95
2020-01-26 09:00:00 0.9 0 Calma 3 Sudeste 1.2 -- -- 95
2020-01-26 08:00:00 1.1 0 Calma 0 Calma 0.4 -- -- 95
2020-01-26 07:00:00 1.3 0 Calma 4 Nordeste 0.4 -- -- 94
2020-01-26 06:00:00 1.7 0 Calma 5 Sudeste 0.4 -- -- 93
2020-01-26 05:00:00 2.2 0 Calma 3 Nordeste 0.4 -- -- 90
2020-01-26 04:00:00 2.8 0 Calma 6 Sudoeste 0 -- -- 80
2020-01-26 03:00:00 2.4 0 Calma 5 Sudeste 0 -- -- 81
2020-01-26 02:00:00 2.5 0 Calma 5 Nordeste 0 -- -- 80
2020-01-26 01:00:00 3.5 0 Calma 11 Este 0 -- -- 72
2020-01-26 00:00:00 3.9 4 Este 11 Este 0 -- -- 71
2020-01-25 23:00:00 3 3 Este 10 Sudeste 0 -- -- 76
2020-01-25 22:00:00 3.1 3 Este 10 Sudeste 0 -- -- 76
2020-01-25 21:00:00 3.1 0 Calma 10 Este 0 -- -- 77
2020-01-25 20:00:00 3.7 2 Sudeste 8 Sudeste 0 -- -- 75
2020-01-25 19:00:00 4.1 4 Este 8 Nordeste 0 -- -- 71
2020-01-25 18:00:00 5.3 3 Este 10 Este 0 -- -- 67
2020-01-25 17:00:00 7.2 6 Nordeste 14 Nordeste 0 -- -- 53
2020-01-25 16:00:00 8.1 2 Sudoeste 8 Sudoeste 0 -- -- 49
2020-01-25 15:00:00 8.8 0 Calma 11 Nordeste 0 -- -- 49
2020-01-25 14:00:00 7.7 0 Calma 5 Sudoeste 0 -- -- 60
2020-01-25 13:00:00 6.8 0 Calma 6 Sudoeste 0 -- -- 67
2020-01-25 12:00:00 5.9 2 Sudoeste 5 Sudoeste 0 -- -- 75
2020-01-25 11:00:00 5.3 0 Calma 4 Norte 0 -- -- 75
2020-01-25 10:00:00 3.4 0 Calma 8 Nordeste 0 -- -- 85
2020-01-25 09:00:00 2.1 4 Nordeste 9 Nordeste 0 -- -- 88
2020-01-25 08:00:00 2.1 3 Este 8 Este 0 -- -- 90
2020-01-25 07:00:00 2.3 0 Calma 11 Nordeste 0 -- -- 81
2020-01-25 06:00:00 3.7 5 Este 15 Sudeste 0 -- -- 68
2020-01-25 05:00:00 3.6 6 Este 15 Este 0 -- -- 65
2020-01-25 04:00:00 2 3 Este 17 Este 0 -- -- 73
2020-01-25 03:00:00 3.1 6 Este 14 Este 0 -- -- 65
2020-01-25 02:00:00 2.2 5 Este 16 Este 0 -- -- 68
2020-01-25 01:00:00 2 7 Sudeste 14 Sudeste 0 -- -- 68
2020-01-25 00:00:00 1.6 6 Este 15 Este 0 -- -- 68
2020-01-24 23:00:00 1.1 4 Este 13 Este 0 -- -- 73
2020-01-24 22:00:00 0 3 Este 10 Este 0 -- -- 80
2020-01-24 21:00:00 0.9 3 Este 15 Nordeste 0 -- -- 77
2020-01-24 20:00:00 2.2 8 Este 17 Nordeste 0 -- -- 68
2020-01-24 19:00:00 0.9 3 Este 11 Este 0 -- -- 80
2020-01-24 18:00:00 1.6 2 Este 7 Nordeste 0 -- -- 82
2020-01-24 17:00:00 3.2 0 Calma 6 Nordeste 0 -- -- 78
2020-01-24 16:00:00 4.7 2 Nordeste 13 Este 0 -- -- 68
2020-01-24 15:00:00 7.1 7 Nordeste 14 Nordeste 0 -- -- 50
2020-01-24 14:00:00 7.2 7 Este 17 Este 0 -- -- 51
2020-01-24 13:00:00 5.6 4 Este 12 Este 0 -- -- 64
2020-01-24 12:00:00 3.8 6 Este 12 Este 0 -- -- 68
2020-01-24 11:00:00 2.5 5 Este 17 Nordeste 0 -- -- 68
2020-01-24 10:00:00 2 5 Este 19 Este 0 -- -- 66
2020-01-24 09:00:00 1.4 6 Este 18 Este 0 -- -- 70
2020-01-24 08:00:00 -0.5 3 Este 13 Nordeste 0 -- -- 82
2020-01-24 07:00:00 -0.5 0 Calma 9 Este 0 -- -- 86
2020-01-24 06:00:00 1.5 5 Este 16 Este 0 -- -- 72
2020-01-24 05:00:00 0.4 4 Este 10 Este 0 -- -- 84
2020-01-24 04:00:00 0.5 2 Este 17 Este 0 -- -- 81
2020-01-24 03:00:00 0.7 2 Este 15 Nordeste 0 -- -- 83
2020-01-24 02:00:00 1.9 5 Este 12 Este 0 -- -- 80
2020-01-24 01:00:00 1.6 2 Este 19 Este 0 -- -- 81
2020-01-24 00:00:00 3.3 8 Este 19 Este 0 -- -- 71
2020-01-23 23:00:00 2.2 6 Este 16 Nordeste 0 -- -- 79
2020-01-23 22:00:00 1.7 6 Este 14 Este 0 -- -- 85
2020-01-23 21:00:00 1.6 6 Este 13 Este 0 -- -- 84
2020-01-23 20:00:00 1 4 Este 10 Este 0 -- -- 91
2020-01-23 19:00:00 1.3 4 Este 12 Nordeste 0 -- -- 91
2020-01-23 18:00:00 2.1 2 Nordeste 8 Este 0 -- -- 90
2020-01-23 17:00:00 4.6 3 Nordeste 17 Este 0 -- -- 82
2020-01-23 16:00:00 5.5 9 Este 19 Este 0.1 -- -- 76
2020-01-23 15:00:00 6.4 8 Este 44 Sudeste 0.1 -- -- 69
2020-01-23 14:00:00 6.6 8 Este 15 Nordeste 0 -- -- 71
2020-01-23 13:00:00 7.1 4 Este 13 Este 0 -- -- 77
2020-01-23 12:00:00 5.3 0 Calma 13 Sudeste 0.1 -- -- 87
2020-01-23 11:00:00 4.1 6 Este 17 Este 0.5 -- -- 90
2020-01-23 10:00:00 3 3 Este 11 Este 1.9 -- -- 94
2020-01-23 09:00:00 1.9 5 Este 12 Este 5.1 -- -- 96
2020-01-23 08:00:00 1.7 0 Calma 5 Sudeste 2 -- -- 96
2020-01-23 07:00:00 1.8 0 Calma 10 Este 1.6 -- -- 96
2020-01-23 06:00:00 1.8 2 Oeste 5 Nordeste 2.1 -- -- 96
2020-01-23 05:00:00 1.8 3 Sur 7 Oeste 2.1 -- -- 96
2020-01-23 04:00:00 2.3 0 Calma 15 Este 1.5 -- -- 94
2020-01-23 03:00:00 4.3 6 Este 17 Sudeste 0.3 -- -- 87
2020-01-23 02:00:00 4.9 6 Este 24 Este 0.1 -- -- 85
2020-01-23 01:00:00 3.2 4 Este 18 Este 0.4 -- -- 92
2020-01-23 00:00:00 1.2 2 Este 9 Nordeste 0.6 -- -- 97
2020-01-22 23:00:00 0.8 2 Nordeste 9 Este 0.3 -- -- 96
2020-01-22 22:00:00 0.7 0 Calma 6 Sur 0.2 -- -- 96
2020-01-22 21:00:00 0.5 0 Calma 7 Nordeste 1.1 -- -- 96
2020-01-22 20:00:00 0.6 0 Calma 4 Nordeste 0.2 -- -- 96
2020-01-22 19:00:00 0.5 0 Calma 7 Este 1.1 -- -- 96
2020-01-22 18:00:00 0.5 0 Calma 3 Oeste 2.1 -- -- 95
2020-01-22 17:00:00 0.8 0 Calma 3 Este 2.9 -- -- 94
2020-01-22 16:00:00 1.8 0 Calma 5 Oeste 1.8 -- -- 93
2020-01-22 15:00:00 2.7 0 Calma 6 Norte 1.7 -- -- 93
2020-01-22 14:00:00 3.1 3 Nordeste 16 Este 1.1 -- -- 91
2020-01-22 13:00:00 3.8 9 Este 21 Este 0.1 -- -- 88
2020-01-22 12:00:00 -- 0 Calma -- -- -- -- -- --
2020-01-22 11:00:00 2 4 Este 9 Este 0 -- -- 94
2020-01-22 10:00:00 2.4 0 Calma 11 Sudeste 0.5 -- -- 94
2020-01-22 09:00:00 1.2 3 Este 12 Este 2.6 -- -- 94
2020-01-22 08:00:00 0.7 0 Calma 5 Nordeste 0.6 -- -- 96
2020-01-22 07:00:00 0.6 0 Calma 8 Este 2.3 -- -- 96
2020-01-22 06:00:00 0.5 0 Calma 6 Nordeste 2.4 -- -- 96
2020-01-22 05:00:00 0.5 0 Calma 10 Este 4.2 -- -- 96
2020-01-22 04:00:00 0 6 Nordeste 12 Nordeste 2.8 -- -- 95
2020-01-22 03:00:00 -0.2 0 Calma 4 Sudeste 1.1 -- -- 93
2020-01-22 02:00:00 0 0 Calma 8 Este 0 -- -- 85
2020-01-22 01:00:00 -0.8 2 Nordeste 9 Nordeste 0 -- -- 86
2020-01-22 00:00:00 -1.6 0 Calma 8 Nordeste 0 -- -- 86